Time;durP1;ratioP1;P1;durP2;ratioP2;P2;SDS_P1;SDS_P2;PMS_P1;PMS_P2;Temp;Humidity;BMP_temperature;BMP_pressure;BME280_temperature;BME280_humidity;BME280_pressure;Samples;Min_cycle;Max_cycle;Signal;HPM_P1;HPM_P2
2023/04/12 00:01:06;;;;;;;35.35;24.75;;;256.90;2252.80;;;;;;5053912;28;20040;-86
2023/04/12 00:03:35;;;;;;;43.13;28.90;;;281.70;2278.40;;;;;;5052281;28;20044;-86
2023/04/12 00:06:02;;;;;;;41.33;27.88;;;281.60;2278.40;;;;;;5035986;28;20036;-85
2023/04/12 00:08:31;;;;;;;55.78;33.88;;;256.90;2252.80;;;;;;5053776;28;20109;-85
2023/04/12 00:10:59;;;;;;;64.25;38.28;;;281.60;2278.40;;;;;;5035578;28;20087;-83
2023/04/12 00:13:25;;;;;;;49.58;30.27;;;256.80;2252.80;;;;;;5035808;28;20036;-81
2023/04/12 00:15:50;;;;;;;42.10;27.90;;;256.60;2252.80;;;;;;5035729;28;20376;-84
2023/04/12 00:18:16;;;;;;;33.35;23.25;;;256.70;2252.80;;;;;;5052488;28;20033;-81
2023/04/12 00:20:42;;;;;;;36.60;23.50;;;256.80;2252.80;;;;;;5053700;28;20147;-83
2023/04/12 00:23:12;;;;;;;50.15;33.00;;;256.70;2252.80;;;;;;5035548;28;20488;-86
2023/04/12 00:25:38;;;;;;;58.00;33.92;;;256.70;2252.80;;;;;;5053509;28;20021;-82
2023/04/12 00:28:04;;;;;;;62.42;38.55;;;256.70;2252.80;;;;;;5035125;28;20029;-83
2023/04/12 00:30:31;;;;;;;54.15;33.75;;;256.60;2252.80;;;;;;5035447;28;20119;-85
2023/04/12 00:32:58;;;;;;;52.15;32.42;;;256.50;2252.80;;;;;;5052727;28;20484;-84
2023/04/12 00:35:23;;;;;;;50.80;32.97;;;256.70;2252.80;;;;;;5035770;28;20474;-80
2023/04/12 00:37:49;;;;;;;58.60;37.60;;;256.70;2252.80;;;;;;5035063;28;20049;-87
2023/04/12 00:40:15;;;;;;;45.55;28.00;;;256.60;2252.80;;;;;;5053828;28;20029;-85
2023/04/12 00:42:41;;;;;;;38.33;25.70;;;256.50;2252.80;;;;;;5035472;28;20115;-80
2023/04/12 00:45:08;;;;;;;34.10;21.98;;;256.70;2252.80;;;;;;5053009;28;20032;-84
2023/04/12 00:47:38;;;;;;;28.77;16.88;;;256.90;2252.80;;;;;;5035738;28;20025;-86
2023/04/12 00:50:08;;;;;;;21.90;14.32;;;281.70;2278.40;;;;;;5035637;28;20025;-84
2023/04/12 00:52:34;;;;;;;19.38;14.02;;;281.80;2278.40;;;;;;5035472;28;20059;-85
2023/04/12 00:55:04;;;;;;;19.35;13.90;;;281.90;2278.40;;;;;;5037467;28;20021;-85
2023/04/12 00:57:38;;;;;;;26.35;18.45;;;282.00;2278.40;;;;;;5039301;28;20358;-81
2023/04/12 01:00:07;;;;;;;27.45;19.77;;;281.90;2278.40;;;;;;5039280;28;20029;-83
2023/04/12 01:02:33;;;;;;;33.42;22.60;;;256.90;2252.80;;;;;;5039223;28;20025;-83
2023/04/12 01:04:59;;;;;;;37.05;23.48;;;256.70;2252.80;;;;;;5039143;28;20165;-83
2023/04/12 01:07:31;;;;;;;37.20;23.52;;;281.80;2278.40;;;;;;5039293;28;20059;-83
2023/04/12 01:09:57;;;;;;;35.47;20.90;;;256.50;2252.80;;;;;;5038969;28;20044;-85
2023/04/12 01:12:52;;;;;;;32.20;22.40;;;256.40;2252.80;;;;;;5038893;28;20461;-84
2023/04/12 01:15:18;;;;;;;36.25;22.05;;;256.50;2252.80;;;;;;5011628;28;20068;-86
2023/04/12 01:18:02;;;;;;;42.40;26.83;;;256.60;2252.80;;;;;;5056585;28;20059;-83
2023/04/12 01:20:34;;;;;;;32.70;20.70;;;256.50;2252.80;;;;;;5038889;28;20377;-86
2023/04/12 01:23:19;;;;;;;24.60;16.98;;;256.60;2252.80;;;;;;5039039;28;20376;-81
2023/04/12 01:26:14;;;;;;;25.83;17.63;;;256.50;2252.80;;;;;;5038635;28;20044;-83
2023/04/12 01:28:44;;;;;;;27.88;19.48;;;256.50;2252.80;;;;;;5038752;28;20021;-87
2023/04/12 01:31:11;;;;;;;31.15;21.10;;;256.40;2252.80;;;;;;5056626;28;20523;-87
2023/04/12 01:33:39;;;;;;;42.22;25.83;;;256.40;2252.80;;;;;;5056317;28;20468;-83
2023/04/12 01:36:20;;;;;;;36.45;24.63;;;256.50;2252.80;;;;;;5038554;28;20033;-83
2023/04/12 01:38:47;;;;;;;29.98;19.20;;;256.40;2252.80;;;;;;5038450;28;20459;-87
2023/04/12 01:41:13;;;;;;;28.10;17.88;;;256.60;2252.80;;;;;;5038223;28;20472;-84
2023/04/12 01:43:46;;;;;;;26.33;15.63;;;256.70;2252.80;;;;;;5038494;28;20029;-83
2023/04/12 01:46:15;;;;;;;26.48;16.77;;;256.90;2252.80;;;;;;5038374;28;20040;-85
2023/04/12 01:48:53;;;;;;;25.67;17.42;;;256.90;2252.80;;;;;;5038198;28;20124;-86
2023/04/12 01:51:37;;;;;;;24.02;16.30;;;281.60;2278.40;;;;;;5038352;28;20029;-88
2023/04/12 01:54:10;;;;;;;19.17;13.40;;;281.70;2278.40;;;;;;5038302;28;20032;-81
2023/04/12 01:56:39;;;;;;;21.27;14.93;;;281.60;2278.40;;;;;;5038453;28;20059;-83
2023/04/12 01:59:07;;;;;;;24.63;13.93;;;281.70;2278.40;;;;;;5038103;28;20132;-83
2023/04/12 02:01:33;;;;;;;19.85;11.75;;;281.80;2278.40;;;;;;5037901;28;20029;-85
2023/04/12 02:04:01;;;;;;;15.05;10.27;;;281.90;2278.40;;;;;;5038049;28;20071;-86
2023/04/12 02:06:27;;;;;;;11.35;7.82;;;281.90;2278.40;;;;;;5037012;28;20120;-82
2023/04/12 02:09:11;;;;;;;12.07;8.63;;;282.00;2278.40;;;;;;5037981;28;20036;-84
2023/04/12 02:11:36;;;;;;;14.70;9.70;;;282.10;2278.40;;;;;;5055518;28;20503;-86
2023/04/12 02:14:02;;;;;;;13.02;8.75;;;282.10;2278.40;;;;;;5037856;28;20029;-85
2023/04/12 02:16:28;;;;;;;14.15;8.55;;;282.20;2278.40;;;;;;5037587;28;20464;-85
2023/04/12 02:18:56;;;;;;;13.45;7.93;;;307.30;2304.00;;;;;;5037645;28;20116;-83
2023/04/12 02:21:21;;;;;;;13.32;7.75;;;282.30;2278.40;;;;;;5037854;28;20118;-87
2023/04/12 02:23:47;;;;;;;14.48;8.73;;;282.30;2278.40;;;;;;5055226;28;20469;-85
2023/04/12 02:26:13;;;;;;;12.57;7.43;;;282.40;2278.40;;;;;;5055592;28;20031;-86
2023/04/12 02:28:39;;;;;;;12.00;8.32;;;282.40;2278.40;;;;;;5037376;28;20380;-86
2023/04/12 02:31:06;;;;;;;10.77;7.65;;;282.40;2278.40;;;;;;5037648;28;20037;-82
2023/04/12 02:33:32;;;;;;;13.65;8.40;;;282.00;2278.40;;;;;;5037361;28;20036;-84
2023/04/12 02:35:58;;;;;;;12.18;8.27;;;282.40;2278.40;;;;;;5055033;28;20021;-83
2023/04/12 02:38:24;;;;;;;11.63;6.93;;;282.40;2278.40;;;;;;5055528;28;20072;-82
2023/04/12 02:40:50;;;;;;;10.77;7.50;;;282.40;2278.40;;;;;;5037433;28;20428;-84
2023/04/12 02:43:16;;;;;;;12.63;7.72;;;282.50;2278.40;;;;;;5037279;28;20059;-85
2023/04/12 02:45:41;;;;;;;8.85;6.45;;;282.50;2278.40;;;;;;5037298;28;20123;-83
2023/04/12 02:48:07;;;;;;;11.73;7.47;;;282.50;2278.40;;;;;;5055405;28;20031;-82
2023/04/12 02:50:33;;;;;;;10.63;7.50;;;282.50;2278.40;;;;;;5036153;28;20037;-84
2023/04/12 02:52:59;;;;;;;12.52;7.75;;;282.50;2278.40;;;;;;5055128;28;20025;-84
2023/04/12 02:55:25;;;;;;;10.00;7.03;;;282.50;2278.40;;;;;;5036050;28;20029;-86
2023/04/12 02:57:52;;;;;;;12.80;7.18;;;282.50;2278.40;;;;;;5053995;28;20032;-82
2023/04/12 03:00:18;;;;;;;10.30;7.10;;;282.50;2278.40;;;;;;5037132;28;20028;-82
2023/04/12 03:02:44;;;;;;;11.70;7.07;;;282.50;2278.40;;;;;;5036184;28;20070;-84
2023/04/12 03:05:11;;;;;;;11.75;7.43;;;282.50;2278.40;;;;;;5036836;28;20373;-81
2023/04/12 03:07:37;;;;;;;10.20;6.47;;;282.50;2278.40;;;;;;5036487;28;20021;-81
2023/04/12 03:10:06;;;;;;;8.93;5.53;;;282.50;2278.40;;;;;;5036792;28;20111;-81
2023/04/12 03:12:32;;;;;;;9.48;5.55;;;282.40;2278.40;;;;;;5036612;28;20469;-81
2023/04/12 03:14:58;;;;;;;8.45;6.47;;;282.40;2278.40;;;;;;5036853;28;20025;-81
2023/04/12 03:17:24;;;;;;;8.35;5.38;;;282.40;2278.40;;;;;;5054370;28;20457;-81
2023/04/12 03:19:50;;;;;;;9.63;6.03;;;282.40;2278.40;;;;;;5036549;28;20029;-83
2023/04/12 03:22:15;;;;;;;8.10;5.68;;;282.40;2278.40;;;;;;5036605;28;20392;-84
2023/04/12 03:24:44;;;;;;;10.05;5.85;;;282.40;2278.40;;;;;;5036364;28;20025;-85
2023/04/12 03:27:10;;;;;;;10.95;5.75;;;282.30;2278.40;;;;;;5054151;28;20461;-86
2023/04/12 03:29:36;;;;;;;10.15;5.78;;;282.30;2278.40;;;;;;5054389;28;20075;-84
2023/04/12 03:32:02;;;;;;;8.38;5.18;;;282.20;2278.40;;;;;;5053875;28;20021;-84
2023/04/12 03:34:34;;;;;;;8.63;5.18;;;282.20;2278.40;;;;;;5036566;28;20519;-80
2023/04/12 03:37:00;;;;;;;8.33;4.43;;;282.20;2278.40;;;;;;5035864;28;20049;-83
2023/04/12 03:39:27;;;;;;;8.52;5.10;;;281.90;2278.40;;;;;;5036037;28;20270;-84
2023/04/12 03:41:53;;;;;;;7.13;5.35;;;282.10;2278.40;;;;;;5036324;28;20439;-85
2023/04/12 03:44:20;;;;;;;7.70;5.20;;;282.10;2278.40;;;;;;5036282;28;20381;-81
2023/04/12 03:46:47;;;;;;;8.23;5.50;;;282.10;2278.40;;;;;;5036121;28;20039;-87
2023/04/12 03:49:13;;;;;;;7.82;5.20;;;282.00;2278.40;;;;;;5036357;28;20052;-82
2023/04/12 03:51:42;;;;;;;8.57;4.50;;;282.00;2278.40;;;;;;5036261;28;20079;-82
2023/04/12 03:54:11;;;;;;;11.32;5.07;;;282.00;2278.40;;;;;;5035763;28;20025;-87
2023/04/12 03:56:38;;;;;;;6.47;4.22;;;281.90;2278.40;;;;;;5036295;28;20025;-84
2023/04/12 03:59:06;;;;;;;6.28;3.90;;;281.70;2278.40;;;;;;5036113;28;20021;-81
2023/04/12 04:01:33;;;;;;;5.82;3.42;;;281.80;2278.40;;;;;;5035863;28;20720;-85
2023/04/12 04:03:59;;;;;;;7.80;4.13;;;281.70;2278.40;;;;;;5053547;28;20071;-82
2023/04/12 04:06:25;;;;;;;6.38;3.70;;;281.70;2278.40;;;;;;5036207;28;20423;-84
2023/04/12 04:08:51;;;;;;;6.18;3.67;;;281.70;2278.40;;;;;;5035810;28;20029;-83
2023/04/12 04:11:17;;;;;;;8.20;4.07;;;281.60;2278.40;;;;;;5035615;28;20029;-84
2023/04/12 04:13:42;;;;;;;8.07;3.90;;;281.60;2278.40;;;;;;5036032;28;20480;-80
2023/04/12 04:16:11;;;;;;;5.22;3.67;;;281.60;2278.40;;;;;;5036005;28;20025;-83
2023/04/12 04:18:37;;;;;;;6.38;3.88;;;256.90;2252.80;;;;;;5035803;28;20387;-83
2023/04/12 04:21:03;;;;;;;5.68;3.95;;;256.90;2252.80;;;;;;5035691;28;20029;-84
2023/04/12 04:23:37;;;;;;;7.22;4.05;;;256.90;2252.80;;;;;;5035781;28;20522;-83
2023/04/12 04:26:05;;;;;;;8.18;4.75;;;256.80;2252.80;;;;;;5036246;28;20029;-83
2023/04/12 04:28:32;;;;;;;9.80;4.30;;;256.90;2252.80;;;;;;5035470;28;20021;-85
2023/04/12 04:31:02;;;;;;;7.90;4.72;;;256.90;2252.80;;;;;;5039120;28;20025;-82
2023/04/12 04:33:28;;;;;;;7.32;4.60;;;256.90;2252.80;;;;;;5039897;28;20131;-83
2023/04/12 04:35:55;;;;;;;7.22;4.15;;;256.90;2252.80;;;;;;5039456;28;20045;-85
2023/04/12 04:38:24;;;;;;;7.20;4.80;;;256.90;2252.80;;;;;;5039564;28;20048;-85
2023/04/12 04:40:54;;;;;;;9.63;5.00;;;256.90;2252.80;;;;;;5039761;28;20029;-86
2023/04/12 04:43:20;;;;;;;8.55;5.07;;;256.90;2252.80;;;;;;5057370;28;20028;-82
2023/04/12 04:45:50;;;;;;;8.10;5.13;;;281.60;2278.40;;;;;;5039519;28;20025;-83
2023/04/12 04:48:17;;;;;;;12.90;6.53;;;256.90;2252.80;;;;;;5039666;28;20024;-85
2023/04/12 04:50:43;;;;;;;9.75;5.82;;;256.90;2252.80;;;;;;5038586;28;20451;-84
2023/04/12 04:53:09;;;;;;;6.72;3.88;;;256.90;2252.80;;;;;;5039333;28;20449;-81
2023/04/12 04:55:35;;;;;;;11.88;4.63;;;256.90;2252.80;;;;;;5038534;28;20060;-81
2023/04/12 04:58:00;;;;;;;9.25;5.18;;;256.90;2252.80;;;;;;5039264;28;20121;-85
2023/04/12 05:00:26;;;;;;;16.75;9.15;;;256.90;2252.80;;;;;;5039342;28;20025;-84
2023/04/12 05:02:52;;;;;;;10.40;7.05;;;256.90;2252.80;;;;;;5056760;28;20056;-85
2023/04/12 05:05:21;;;;;;;12.23;6.72;;;256.90;2252.80;;;;;;5056851;28;20021;-84
2023/04/12 05:07:48;;;;;;;12.18;7.05;;;256.90;2252.80;;;;;;5056981;28;20477;-85
2023/04/12 05:10:14;;;;;;;16.90;9.32;;;256.90;2252.80;;;;;;5056418;28;20056;-86
2023/04/12 05:12:39;;;;;;;18.23;11.25;;;256.90;2252.80;;;;;;5038305;28;20389;-83
2023/04/12 05:15:06;;;;;;;16.13;9.52;;;256.90;2252.80;;;;;;5038093;28;20029;-81
2023/04/12 05:17:33;;;;;;;13.65;8.82;;;256.90;2252.80;;;;;;5037824;28;20051;-86
2023/04/12 05:19:59;;;;;;;10.45;5.70;;;256.90;2252.80;;;;;;5038868;28;20020;-82
2023/04/12 05:22:28;;;;;;;8.90;4.78;;;256.90;2252.80;;;;;;5038864;28;20029;-83
2023/04/12 05:24:54;;;;;;;8.93;5.30;;;281.70;2278.40;;;;;;5038748;28;20131;-82
2023/04/12 05:27:20;;;;;;;8.13;4.60;;;281.70;2278.40;;;;;;5055579;28;20072;-81
2023/04/12 05:29:46;;;;;;;6.05;3.85;;;281.70;2278.40;;;;;;5038816;28;20048;-81
2023/04/12 05:32:12;;;;;;;19.20;11.02;;;281.70;2278.40;;;;;;5038334;28;20032;-83
2023/04/12 05:34:38;;;;;;;8.95;5.70;;;281.70;2278.40;;;;;;5038534;28;20086;-81
2023/04/12 05:37:04;;;;;;;11.60;7.28;;;281.70;2278.40;;;;;;5038189;28;20053;-83
2023/04/12 05:39:30;;;;;;;16.25;10.35;;;281.70;2278.40;;;;;;5038496;28;20025;-84
2023/04/12 05:41:56;;;;;;;10.35;5.60;;;281.80;2278.40;;;;;;5038474;28;20033;-84
2023/04/12 05:44:22;;;;;;;9.27;4.43;;;281.80;2278.40;;;;;;5038463;28;20036;-85
2023/04/12 05:46:47;;;;;;;7.63;5.07;;;281.90;2278.40;;;;;;5056464;28;20036;-84
2023/04/12 05:49:13;;;;;;;8.63;4.75;;;281.90;2278.40;;;;;;5038370;28;20021;-83
2023/04/12 05:51:39;;;;;;;5.80;3.50;;;281.90;2278.40;;;;;;5038193;28;20052;-82
2023/04/12 05:54:06;;;;;;;6.75;4.00;;;282.00;2278.40;;;;;;5038672;28;20047;-84
2023/04/12 05:56:32;;;;;;;6.05;4.05;;;282.00;2278.40;;;;;;5038411;28;20036;-86
2023/04/12 05:59:00;;;;;;;10.68;6.30;;;282.00;2278.40;;;;;;5055275;28;20029;-85
2023/04/12 06:01:30;;;;;;;6.20;3.90;;;282.00;2278.40;;;;;;5037897;28;20029;-84
2023/04/12 06:03:56;;;;;;;8.65;4.28;;;307.30;2304.00;;;;;;5037157;28;20163;-81
2023/04/12 06:06:22;;;;;;;8.50;4.80;;;282.10;2278.40;;;;;;5037917;28;20183;-86
2023/04/12 06:08:48;;;;;;;10.82;6.10;;;282.20;2278.40;;;;;;5038087;28;20178;-85
2023/04/12 06:11:15;;;;;;;7.88;4.70;;;282.30;2278.40;;;;;;5055875;28;20036;-85
2023/04/12 06:13:40;;;;;;;9.25;5.65;;;282.30;2278.40;;;;;;5037727;28;20116;-87
2023/04/12 06:16:07;;;;;;;11.07;6.78;;;282.40;2278.40;;;;;;5038031;28;20056;-84
2023/04/12 06:18:33;;;;;;;9.77;3.88;;;282.40;2278.40;;;;;;5037948;28;20048;-84
2023/04/12 06:20:59;;;;;;;7.10;4.50;;;282.40;2278.40;;;;;;5055556;28;20464;-83
2023/04/12 06:23:25;;;;;;;8.02;4.57;;;282.50;2278.40;;;;;;5037711;28;20033;-85
2023/04/12 06:25:52;;;;;;;7.47;4.15;;;282.50;2278.40;;;;;;5037768;28;20025;-86
2023/04/12 06:28:18;;;;;;;6.72;4.43;;;282.50;2278.40;;;;;;5035775;28;20035;-82
2023/04/12 06:30:44;;;;;;;6.82;4.47;;;282.50;2278.40;;;;;;5055090;28;20115;-85
2023/04/12 06:33:10;;;;;;;6.75;3.92;;;282.50;2278.40;;;;;;5036756;28;20079;-86
2023/04/12 06:35:36;;;;;;;8.02;4.78;;;282.50;2278.40;;;;;;5055063;28;20056;-85
2023/04/12 06:38:02;;;;;;;6.18;4.03;;;307.20;2304.00;;;;;;5037417;28;20110;-84
2023/04/12 06:40:27;;;;;;;11.00;7.28;;;307.30;2304.00;;;;;;5037286;28;20120;-86
2023/04/12 06:42:53;;;;;;;7.85;4.43;;;307.40;2304.00;;;;;;5037040;28;20020;-83
2023/04/12 06:45:19;;;;;;;9.00;3.75;;;307.40;2304.00;;;;;;5037021;28;20025;-86
2023/04/12 06:47:46;;;;;;;6.90;3.70;;;307.50;2304.00;;;;;;5036884;28;20091;-82
2023/04/12 06:50:12;;;;;;;6.10;4.10;;;307.50;2304.00;;;;;;5037352;28;20453;-84
2023/04/12 06:52:37;;;;;;;7.43;5.20;;;307.60;2304.00;;;;;;5036568;28;20124;-85
2023/04/12 06:55:04;;;;;;;15.38;10.73;;;307.60;2304.00;;;;;;5037439;28;20090;-85
2023/04/12 06:57:30;;;;;;;9.68;6.13;;;307.80;2304.00;;;;;;5036244;28;20435;-85
2023/04/12 06:59:56;;;;;;;9.65;5.65;;;307.80;2304.00;;;;;;5036324;28;20020;-84
2023/04/12 07:02:21;;;;;;;9.65;6.13;;;307.90;2304.00;;;;;;5053484;28;20025;-84
2023/04/12 07:04:52;;;;;;;10.70;6.45;;;308.00;2304.00;;;;;;5036838;28;20029;-83
2023/04/12 07:07:19;;;;;;;8.35;5.60;;;308.10;2304.00;;;;;;5036970;28;20479;-81
2023/04/12 07:09:46;;;;;;;9.35;5.40;;;332.80;2329.60;;;;;;5036631;28;20028;-82
2023/04/12 07:12:12;;;;;;;6.75;4.15;;;332.80;2329.60;;;;;;5036915;28;20044;-84
2023/04/12 07:14:38;;;;;;;6.00;3.65;;;332.90;2329.60;;;;;;5037099;28;20032;-83
2023/04/12 07:17:04;;;;;;;7.70;4.43;;;332.90;2329.60;;;;;;5036537;28;20025;-85
2023/04/12 07:19:30;;;;;;;9.02;5.25;;;332.90;2329.60;;;;;;5036600;28;20036;-81
2023/04/12 07:21:56;;;;;;;7.53;4.65;;;333.00;2329.60;;;;;;5037054;28;20029;-83
2023/04/12 07:24:23;;;;;;;9.82;5.85;;;333.00;2329.60;;;;;;5037226;28;20060;-89
2023/04/12 07:26:48;;;;;;;9.50;5.50;;;333.10;2329.60;;;;;;5037194;28;20025;-85
2023/04/12 07:29:15;;;;;;;5.82;3.45;;;333.30;2329.60;;;;;;5036817;28;20032;-83
2023/04/12 07:31:41;;;;;;;6.95;3.88;;;333.20;2329.60;;;;;;5036469;28;20075;-83
2023/04/12 07:34:07;;;;;;;9.23;3.80;;;333.30;2329.60;;;;;;5036844;28;20060;-86
2023/04/12 07:36:33;;;;;;;5.80;3.67;;;333.30;2329.60;;;;;;5037111;28;20027;-89
2023/04/12 07:38:58;;;;;;;6.88;3.92;;;333.30;2329.60;;;;;;5029152;28;20048;-83
2023/04/12 07:41:24;;;;;;;9.05;3.85;;;333.40;2329.60;;;;;;5021026;28;20389;-85
2023/04/12 07:43:50;;;;;;;6.05;3.60;;;333.50;2329.60;;;;;;5055777;28;20108;-87
2023/04/12 07:46:16;;;;;;;6.57;3.28;;;333.40;2329.60;;;;;;5048042;28;20121;-88
2023/04/12 07:48:43;;;;;;;5.50;3.20;;;333.50;2329.60;;;;;;5046678;28;20195;-89
2023/04/12 07:51:08;;;;;;;5.95;3.10;;;333.50;2329.60;;;;;;5035873;28;20036;-86
2023/04/12 07:53:34;;;;;;;6.60;4.15;;;333.50;2304.00;;;;;;5046000;28;20424;-86
2023/04/12 07:56:02;;;;;;;5.40;2.92;;;333.50;2278.40;;;;;;5035984;28;20033;-85
2023/04/12 07:58:28;;;;;;;7.20;4.10;;;333.70;2278.40;;;;;;5036221;28;20469;-87
2023/04/12 08:00:55;;;;;;;5.18;3.20;;;358.40;2278.40;;;;;;5041680;28;20032;-86
2023/04/12 08:03:21;;;;;;;4.53;2.83;;;333.70;2304.00;;;;;;5035818;28;20021;-83
2023/04/12 08:05:52;;;;;;;5.78;3.42;;;333.70;2329.60;;;;;;5035503;28;20525;-86
2023/04/12 08:08:19;;;;;;;5.93;3.30;;;358.50;2278.40;;;;;;5036268;28;20047;-85
2023/04/12 08:10:46;;;;;;;6.65;3.67;;;358.50;2227.20;;;;;;5038193;28;20399;-86
2023/04/12 08:13:12;;;;;;;7.00;3.13;;;358.60;2252.80;;;;;;5018823;28;20095;-84
2023/04/12 08:15:38;;;;;;;9.43;4.68;;;358.80;2201.60;;;;;;5036112;28;20029;-83
2023/04/12 08:18:04;;;;;;;6.55;3.85;;;358.80;2201.60;;;;;;5042608;28;20024;-86
2023/04/12 08:20:31;;;;;;;6.35;3.67;;;358.90;2150.40;;;;;;5037187;28;20373;-84
2023/04/12 08:22:57;;;;;;;5.72;3.00;;;359.00;2150.40;;;;;;5053780;28;20048;-83
2023/04/12 08:25:23;;;;;;;5.25;3.03;;;359.00;2124.80;;;;;;5053820;28;20029;-83
2023/04/12 08:27:50;;;;;;;5.50;3.30;;;359.00;2124.80;;;;;;5027485;28;20033;-81
2023/04/12 08:30:16;;;;;;;5.25;2.53;;;359.00;2150.40;;;;;;5034337;28;20120;-82
2023/04/12 08:32:42;;;;;;;4.88;2.38;;;359.00;2124.80;;;;;;5053299;28;20143;-80
2023/04/12 08:35:08;;;;;;;4.85;2.60;;;359.20;2099.20;;;;;;5053383;28;20122;-84
2023/04/12 08:37:34;;;;;;;6.20;2.83;;;359.30;2073.60;;;;;;5053288;28;20052;-81
2023/04/12 08:40:05;;;;;;;4.97;2.53;;;384.10;2073.60;;;;;;5035642;28;20025;-83
2023/04/12 08:42:35;;;;;;;5.43;2.45;;;384.00;2048.00;;;;;;5040504;28;20055;-84
2023/04/12 08:45:07;;;;;;;8.30;3.75;;;384.00;2073.60;;;;;;5035403;28;20116;-82
2023/04/12 08:47:35;;;;;;;6.90;4.10;;;384.10;2073.60;;;;;;5035191;28;20033;-85
2023/04/12 08:50:02;;;;;;;6.25;3.20;;;384.20;2073.60;;;;;;5043590;28;20104;-82
2023/04/12 08:52:28;;;;;;;6.25;2.47;;;384.20;2022.40;;;;;;5032557;28;20458;-83
2023/04/12 08:54:55;;;;;;;9.27;4.45;;;384.10;2048.00;;;;;;5021904;28;20021;-82
2023/04/12 08:57:21;;;;;;;8.40;4.63;;;384.40;2073.60;;;;;;5025071;28;20025;-84
2023/04/12 08:59:49;;;;;;;5.93;3.50;;;384.40;2048.00;;;;;;5031807;28;20031;-83
2023/04/12 09:02:15;;;;;;;7.22;2.67;;;384.50;2022.40;;;;;;5034908;28;20033;-83
2023/04/12 09:04:52;;;;;;;4.88;2.33;;;384.50;2022.40;;;;;;5035230;28;20358;-82
2023/04/12 09:07:18;;;;;;;6.57;2.42;;;384.50;1996.80;;;;;;5043096;28;20017;-81
2023/04/12 09:09:46;;;;;;;4.80;2.90;;;384.40;2022.40;;;;;;5028416;28;20032;-82
2023/04/12 09:12:14;;;;;;;6.10;2.88;;;384.20;1996.80;;;;;;5034318;28;20029;-83
2023/04/12 09:14:43;;;;;;;7.32;3.50;;;384.30;1996.80;;;;;;5037817;28;20029;-82
2023/04/12 09:17:23;;;;;;;5.05;2.75;;;384.40;1996.80;;;;;;5049168;28;20029;-84
2023/04/12 09:19:49;;;;;;;4.93;2.42;;;384.50;1996.80;;;;;;5038857;28;20028;-84
2023/04/12 09:22:15;;;;;;;6.78;3.90;;;384.40;1971.20;;;;;;5039085;28;20539;-84
2023/04/12 09:24:49;;;;;;;6.30;3.88;;;384.40;1971.20;;;;;;5023588;28;20075;-85
2023/04/12 09:27:15;;;;;;;6.57;3.08;;;384.60;1945.60;;;;;;5037625;28;20116;-84
2023/04/12 09:29:41;;;;;;;9.38;4.65;;;384.60;1920.00;;;;;;5037597;28;20025;-81
2023/04/12 09:32:08;;;;;;;4.18;2.42;;;384.90;1920.00;;;;;;5037217;28;20029;-83
2023/04/12 09:34:35;;;;;;;6.93;3.45;;;384.90;1894.40;;;;;;5022081;28;20029;-83
2023/04/12 09:37:15;;;;;;;4.65;2.38;;;409.80;1945.60;;;;;;5030414;28;20022;-83
2023/04/12 09:39:42;;;;;;;6.63;3.50;;;410.00;1894.40;;;;;;5049181;28;20027;-83
2023/04/12 09:42:09;;;;;;;6.13;3.38;;;409.90;1920.00;;;;;;5021532;28;20033;-83
2023/04/12 09:44:35;;;;;;;8.57;4.20;;;410.00;1894.40;;;;;;5037803;28;20025;-82
2023/04/12 09:47:03;;;;;;;7.53;4.05;;;410.00;1894.40;;;;;;5038136;28;20032;-83
2023/04/12 09:49:40;;;;;;;7.35;4.50;;;410.00;1868.80;;;;;;5048164;28;20028;-81
2023/04/12 09:52:10;;;;;;;11.50;6.35;;;410.30;1868.80;;;;;;5037940;28;20106;-83
2023/04/12 09:54:43;;;;;;;7.50;5.43;;;410.30;1792.00;;;;;;5040126;28;20029;-83
2023/04/12 09:57:10;;;;;;;4.97;2.22;;;410.20;1792.00;;;;;;5055355;28;20017;-82
2023/04/12 09:59:41;;;;;;;7.60;3.47;;;410.40;1766.40;;;;;;5025641;28;20026;-83
2023/04/12 10:02:15;;;;;;;7.43;4.55;;;410.50;1817.60;;;;;;5018177;28;20393;-83
2023/04/12 10:04:42;;;;;;;5.53;3.28;;;435.30;1766.40;;;;;;5033023;28;20028;-84
2023/04/12 10:07:08;;;;;;;9.10;6.15;;;410.50;1766.40;;;;;;5021784;28;20108;-84
2023/04/12 10:09:37;;;;;;;5.38;3.65;;;435.50;1740.80;;;;;;5047571;28;20060;-85
2023/04/12 10:12:03;;;;;;;5.47;2.40;;;435.60;1740.80;;;;;;5037545;28;20385;-85
2023/04/12 10:14:29;;;;;;;8.98;4.30;;;435.50;1715.20;;;;;;5021251;28;20086;-85
2023/04/12 10:17:02;;;;;;;6.55;3.67;;;435.60;1740.80;;;;;;5037139;28;20033;-85
2023/04/12 10:19:30;;;;;;;5.95;3.42;;;435.80;1740.80;;;;;;5037311;28;20029;-85
2023/04/12 10:21:56;;;;;;;4.65;2.45;;;435.80;1715.20;;;;;;5037566;28;20033;-88
2023/04/12 10:24:23;;;;;;;6.22;3.30;;;435.90;1664.00;;;;;;5053343;28;20025;-87
2023/04/12 10:26:54;;;;;;;5.45;2.72;;;436.10;1664.00;;;;;;5022839;28;20025;-86
2023/04/12 10:29:29;;;;;;;8.18;3.65;;;460.80;1689.60;;;;;;5037939;28;20026;-87
2023/04/12 10:31:56;;;;;;;7.40;4.85;;;460.90;1689.60;;;;;;5037895;28;20090;-86
2023/04/12 10:34:30;;;;;;;6.68;3.55;;;461.20;1664.00;;;;;;5021363;28;20036;-87
2023/04/12 10:37:00;;;;;;;5.68;2.75;;;461.50;1664.00;;;;;;5030653;28;20032;-89
2023/04/12 10:39:40;;;;;;;7.97;5.32;;;461.30;1612.80;;;;;;5029088;28;20025;-86
2023/04/12 10:42:15;;;;;;;5.28;3.08;;;461.50;1638.40;;;;;;5037419;28;20063;-84
2023/04/12 10:44:41;;;;;;;5.78;3.10;;;461.60;1612.80;;;;;;5022611;28;20043;-84
2023/04/12 10:47:08;;;;;;;4.30;2.30;;;486.40;1612.80;;;;;;5055344;28;20051;-85
2023/04/12 10:49:34;;;;;;;5.03;2.70;;;461.70;1612.80;;;;;;5037214;28;20116;-86
2023/04/12 10:52:02;;;;;;;6.03;3.78;;;486.40;1587.20;;;;;;5037227;28;20028;-82
2023/04/12 10:54:31;;;;;;;5.47;2.63;;;486.60;1561.60;;;;;;5017694;28;20090;-84
2023/04/12 10:56:56;;;;;;;4.50;2.47;;;486.60;1587.20;;;;;;5017199;28;20029;-84
2023/04/12 10:59:22;;;;;;;3.75;1.90;;;486.70;1587.20;;;;;;5027618;28;20029;-85
2023/04/12 11:02:10;;;;;;;5.82;2.78;;;486.80;1587.20;;;;;;5022953;28;20037;-84
2023/04/12 11:04:36;;;;;;;5.47;2.65;;;486.80;1561.60;;;;;;5021506;28;20527;-83
2023/04/12 11:07:08;;;;;;;4.32;1.90;;;486.70;1561.60;;;;;;5036907;28;20057;-86
2023/04/12 11:09:43;;;;;;;5.97;3.15;;;486.90;1587.20;;;;;;5041731;28;20029;-86
2023/04/12 11:12:11;;;;;;;5.38;2.55;;;487.10;1561.60;;;;;;5033517;28;20061;-85
2023/04/12 11:14:42;;;;;;;8.00;4.63;;;487.30;1510.40;;;;;;5033736;28;20040;-86
2023/04/12 11:17:08;;;;;;;6.68;2.53;;;512.20;1484.80;;;;;;5037894;28;20380;-86
2023/04/12 11:20:00;;;;;;;4.85;1.77;;;512.40;1664.00;;;;;;5055664;28;20025;-84
2023/04/12 11:22:31;;;;;;;4.72;1.85;;;512.50;1587.20;;;;;;5031571;28;20040;-83
2023/04/12 11:25:01;;;;;;;4.85;2.00;;;512.60;1459.20;;;;;;5055370;28;20114;-85
2023/04/12 11:27:28;;;;;;;3.72;1.95;;;537.60;1484.80;;;;;;5025672;28;20029;-86
2023/04/12 11:29:56;;;;;;;5.70;3.03;;;537.90;1459.20;;;;;;5031363;28;20025;-84
2023/04/12 11:32:25;;;;;;;6.03;3.00;;;537.70;1510.40;;;;;;5036889;28;20040;-84
2023/04/12 11:34:54;;;;;;;4.30;2.40;;;512.90;1484.80;;;;;;5030141;28;20025;-87
2023/04/12 11:37:20;;;;;;;5.43;2.55;;;512.90;1510.40;;;;;;5026423;28;20045;-85
2023/04/12 11:39:47;;;;;;;6.97;3.67;;;537.80;1510.40;;;;;;5022616;28;20087;-86
2023/04/12 11:42:21;;;;;;;4.38;2.20;;;538.10;1510.40;;;;;;5033146;28;20086;-87
2023/04/12 11:44:48;;;;;;;4.80;1.60;;;538.20;1459.20;;;;;;5023140;28;20021;-81
2023/04/12 11:47:15;;;;;;;3.90;1.88;;;537.60;1459.20;;;;;;5031111;28;20380;-85
2023/04/12 11:49:49;;;;;;;3.00;1.40;;;512.80;1510.40;;;;;;5028662;28;20021;-82
2023/04/12 11:52:16;;;;;;;3.53;1.70;;;512.60;1408.00;;;;;;5035915;28;20029;-84
2023/04/12 11:54:50;;;;;;;5.30;2.05;;;512.90;1433.60;;;;;;5035798;28;20074;-84
2023/04/12 11:57:19;;;;;;;6.78;2.40;;;512.90;1459.20;;;;;;5027144;28;20036;-84
2023/04/12 11:59:46;;;;;;;3.53;1.80;;;538.00;1484.80;;;;;;5034578;28;20052;-85
2023/04/12 12:02:14;;;;;;;3.90;1.92;;;537.80;1433.60;;;;;;5035628;28;20059;-85
2023/04/12 12:04:47;;;;;;;3.38;1.55;;;512.70;1433.60;;;;;;5030381;28;20028;-86
2023/04/12 12:07:15;;;;;;;3.85;1.90;;;537.70;1433.60;;;;;;5024873;28;20471;-82
2023/04/12 12:09:42;;;;;;;8.52;3.65;;;537.90;1459.20;;;;;;5023137;28;20037;-83
2023/04/12 12:12:10;;;;;;;4.07;2.20;;;538.10;1459.20;;;;;;5032277;28;20128;-79
2023/04/12 12:14:36;;;;;;;6.30;2.60;;;537.80;1433.60;;;;;;5037245;28;20021;-81
2023/04/12 12:17:12;;;;;;;4.53;2.33;;;538.20;1459.20;;;;;;5045725;28;20017;-79